aviador You're here:

LFQQ Decoded Metar

LILLE in FRANCE
Report Time2017-08-18 23:30:00
UTC Time2017-08-18 23:36:37
Flight Rules vfr VFR
Wind200° at 07 kt
W.Decomp.*RWY 20: 7.0 kt HW 0 kt LCW
RWY 26: 3.5 kt HW 6.1 kt LCW
W.Rank200° ranks 1
Current wind is below 200° avg. (8.8)
Visibility9999 m
Phenomena:N/A
Clouds:N/A
Expected CloudBase > 1,200 ft AGL from Temp-Dew spread
CeilingNone
Temp13°C (ISA -2)
Dew Point10°C (82% RH)
AAT10.5°C
QNH1015 hPa
Density Alt72 ft
Elevation171 ft
Report Wrong Elevation
Raw Report
METAR LFQQ 182330Z AUTO 20007KT CAVOK 13/10 Q1015 NOSIG=

Extra information for LFQQ:More info

Metar Taf Metar & Taf Last 4 Metars F.Rules Stats Wind Profile Meteogram Temp Stats Airport Information Weather charts Add Link Nearby VenuesMetar ALERT Operation Metar Decoded Social comments